Arkholme, United Kingdom
Current Conditions -  °F | °C
As of 7:20 PM on Wednesday 28 Jan 2015 (Local Time) from EGNO Reporting Station
Rain Showers Rain Showers  
Wind Chill: 28°   Ceiling: Unl
Heat Index: 39°   Visibility: 6mi
Dew Point: 34°   Wind: 25mph
Humidity: 81%   Direction: 280°W
Pressure: 29.38"   Gusts: 38mph
Location:  54.13°N, 2.75°W
Report Text: EGNO 281920Z 28022G33KT 9999 VCSH FEW020 SCT025 04/01 Q0995
Loading
Personal Weather Stations






























Interactive Weather Map New forecast layout! Learn more

10-Day Weather Forecast

Advertisements
Track Severe Weather on mobile